sensor_id;sensor_type;location;lat;lon;timestamp;P1;durP1;ratioP1;P2;durP2;ratioP2
61840;SDS011;47773;53.174;6.614;2023-05-03T00:00:17;5.05;;;1.83;;
61840;SDS011;47773;53.174;6.614;2023-05-03T00:02:44;5.35;;;1.95;;
61840;SDS011;47773;53.174;6.614;2023-05-03T00:05:11;3.40;;;1.58;;
61840;SDS011;47773;53.174;6.614;2023-05-03T00:07:38;3.63;;;1.70;;
61840;SDS011;47773;53.174;6.614;2023-05-03T00:10:06;4.90;;;1.95;;
61840;SDS011;47773;53.174;6.614;2023-05-03T00:12:34;4.45;;;2.08;;
61840;SDS011;47773;53.174;6.614;2023-05-03T00:15:02;4.60;;;2.03;;
61840;SDS011;47773;53.174;6.614;2023-05-03T00:17:28;4.53;;;2.13;;
61840;SDS011;47773;53.174;6.614;2023-05-03T00:19:54;7.63;;;1.70;;
61840;SDS011;47773;53.174;6.614;2023-05-03T00:22:20;5.03;;;1.95;;
61840;SDS011;47773;53.174;6.614;2023-05-03T00:24:46;8.38;;;2.42;;
61840;SDS011;47773;53.174;6.614;2023-05-03T00:27:15;4.82;;;2.00;;
61840;SDS011;47773;53.174;6.614;2023-05-03T00:29:41;6.22;;;2.10;;
61840;SDS011;47773;53.174;6.614;2023-05-03T00:32:07;4.55;;;2.00;;
61840;SDS011;47773;53.174;6.614;2023-05-03T00:34:34;5.22;;;2.10;;
61840;SDS011;47773;53.174;6.614;2023-05-03T00:37:00;7.15;;;2.60;;
61840;SDS011;47773;53.174;6.614;2023-05-03T00:39:27;7.60;;;2.60;;
61840;SDS011;47773;53.174;6.614;2023-05-03T00:41:55;11.00;;;3.03;;
61840;SDS011;47773;53.174;6.614;2023-05-03T00:44:26;6.60;;;2.40;;
61840;SDS011;47773;53.174;6.614;2023-05-03T00:46:52;6.78;;;2.75;;
61840;SDS011;47773;53.174;6.614;2023-05-03T00:49:19;6.00;;;2.58;;
61840;SDS011;47773;53.174;6.614;2023-05-03T00:51:45;9.70;;;2.70;;
61840;SDS011;47773;53.174;6.614;2023-05-03T00:54:11;8.90;;;3.47;;
61840;SDS011;47773;53.174;6.614;2023-05-03T00:56:37;6.72;;;2.75;;
61840;SDS011;47773;53.174;6.614;2023-05-03T00:59:04;8.35;;;2.70;;
61840;SDS011;47773;53.174;6.614;2023-05-03T01:01:30;4.10;;;2.70;;
61840;SDS011;47773;53.174;6.614;2023-05-03T01:03:57;6.07;;;2.58;;
61840;SDS011;47773;53.174;6.614;2023-05-03T01:12:38;6.82;;;2.60;;
61840;SDS011;47773;53.174;6.614;2023-05-03T01:18:25;8.95;;;2.53;;
61840;SDS011;47773;53.174;6.614;2023-05-03T01:20:59;6.68;;;2.63;;
61840;SDS011;47773;53.174;6.614;2023-05-03T01:25:52;8.95;;;2.65;;
61840;SDS011;47773;53.174;6.614;2023-05-03T01:28:18;5.78;;;2.30;;
61840;SDS011;47773;53.174;6.614;2023-05-03T01:30:44;4.43;;;2.25;;
61840;SDS011;47773;53.174;6.614;2023-05-03T01:35:40;6.28;;;2.47;;
61840;SDS011;47773;53.174;6.614;2023-05-03T01:38:12;6.63;;;2.63;;
61840;SDS011;47773;53.174;6.614;2023-05-03T01:40:41;4.60;;;1.90;;
61840;SDS011;47773;53.174;6.614;2023-05-03T01:43:11;5.60;;;2.20;;
61840;SDS011;47773;53.174;6.614;2023-05-03T01:45:39;6.72;;;2.28;;
61840;SDS011;47773;53.174;6.614;2023-05-03T01:48:14;7.30;;;2.10;;
61840;SDS011;47773;53.174;6.614;2023-05-03T01:50:41;5.65;;;2.03;;
61840;SDS011;47773;53.174;6.614;2023-05-03T01:53:06;2.75;;;2.05;;
61840;SDS011;47773;53.174;6.614;2023-05-03T01:55:33;5.75;;;2.50;;
61840;SDS011;47773;53.174;6.614;2023-05-03T01:57:58;7.22;;;2.20;;
61840;SDS011;47773;53.174;6.614;2023-05-03T02:00:24;4.20;;;2.20;;
61840;SDS011;47773;53.174;6.614;2023-05-03T02:02:50;6.38;;;2.10;;
61840;SDS011;47773;53.174;6.614;2023-05-03T02:05:16;5.38;;;1.98;;
61840;SDS011;47773;53.174;6.614;2023-05-03T02:07:41;5.88;;;2.15;;
61840;SDS011;47773;53.174;6.614;2023-05-03T02:10:07;4.32;;;2.00;;
61840;SDS011;47773;53.174;6.614;2023-05-03T02:12:38;4.47;;;1.60;;
61840;SDS011;47773;53.174;6.614;2023-05-03T02:15:07;3.15;;;1.83;;
61840;SDS011;47773;53.174;6.614;2023-05-03T02:17:34;3.17;;;1.83;;
61840;SDS011;47773;53.174;6.614;2023-05-03T02:19:59;6.43;;;1.83;;
61840;SDS011;47773;53.174;6.614;2023-05-03T02:22:25;5.00;;;1.75;;
61840;SDS011;47773;53.174;6.614;2023-05-03T02:24:51;4.32;;;1.95;;
61840;SDS011;47773;53.174;6.614;2023-05-03T02:27:16;3.72;;;1.83;;
61840;SDS011;47773;53.174;6.614;2023-05-03T02:29:42;5.85;;;1.88;;
61840;SDS011;47773;53.174;6.614;2023-05-03T02:32:08;4.60;;;1.92;;
61840;SDS011;47773;53.174;6.614;2023-05-03T02:34:33;6.05;;;1.40;;
61840;SDS011;47773;53.174;6.614;2023-05-03T02:36:59;4.10;;;1.58;;
61840;SDS011;47773;53.174;6.614;2023-05-03T02:39:25;5.35;;;1.77;;
61840;SDS011;47773;53.174;6.614;2023-05-03T02:41:50;8.77;;;1.70;;
61840;SDS011;47773;53.174;6.614;2023-05-03T02:44:16;5.32;;;1.90;;
61840;SDS011;47773;53.174;6.614;2023-05-03T02:46:42;2.85;;;1.48;;
61840;SDS011;47773;53.174;6.614;2023-05-03T02:49:07;3.67;;;1.70;;
61840;SDS011;47773;53.174;6.614;2023-05-03T02:51:33;2.33;;;1.50;;
61840;SDS011;47773;53.174;6.614;2023-05-03T02:54:00;3.28;;;1.95;;
61840;SDS011;47773;53.174;6.614;2023-05-03T02:56:26;4.18;;;1.70;;
61840;SDS011;47773;53.174;6.614;2023-05-03T02:58:52;4.55;;;1.52;;
61840;SDS011;47773;53.174;6.614;2023-05-03T03:01:18;3.85;;;1.35;;
61840;SDS011;47773;53.174;6.614;2023-05-03T03:03:43;5.47;;;1.70;;
61840;SDS011;47773;53.174;6.614;2023-05-03T03:06:09;3.75;;;1.60;;
61840;SDS011;47773;53.174;6.614;2023-05-03T03:08:35;2.92;;;1.58;;
61840;SDS011;47773;53.174;6.614;2023-05-03T03:11:01;2.70;;;1.50;;
61840;SDS011;47773;53.174;6.614;2023-05-03T03:13:28;4.68;;;1.77;;
61840;SDS011;47773;53.174;6.614;2023-05-03T03:15:53;4.15;;;1.58;;
61840;SDS011;47773;53.174;6.614;2023-05-03T03:18:19;2.40;;;1.58;;
61840;SDS011;47773;53.174;6.614;2023-05-03T03:20:45;3.83;;;1.70;;
61840;SDS011;47773;53.174;6.614;2023-05-03T03:23:10;6.25;;;1.60;;
61840;SDS011;47773;53.174;6.614;2023-05-03T03:25:36;3.53;;;1.50;;
61840;SDS011;47773;53.174;6.614;2023-05-03T03:28:02;6.70;;;1.63;;
61840;SDS011;47773;53.174;6.614;2023-05-03T03:30:28;5.40;;;1.40;;
61840;SDS011;47773;53.174;6.614;2023-05-03T03:32:54;5.13;;;1.90;;
61840;SDS011;47773;53.174;6.614;2023-05-03T03:35:20;4.53;;;1.80;;
61840;SDS011;47773;53.174;6.614;2023-05-03T03:37:46;2.80;;;1.52;;
61840;SDS011;47773;53.174;6.614;2023-05-03T03:40:12;5.10;;;1.70;;
61840;SDS011;47773;53.174;6.614;2023-05-03T03:42:38;3.25;;;1.65;;
61840;SDS011;47773;53.174;6.614;2023-05-03T03:45:04;5.15;;;1.85;;
61840;SDS011;47773;53.174;6.614;2023-05-03T03:47:30;5.13;;;1.95;;
61840;SDS011;47773;53.174;6.614;2023-05-03T03:49:57;4.45;;;1.80;;
61840;SDS011;47773;53.174;6.614;2023-05-03T03:52:24;4.55;;;2.25;;
61840;SDS011;47773;53.174;6.614;2023-05-03T03:54:49;3.33;;;1.73;;
61840;SDS011;47773;53.174;6.614;2023-05-03T03:57:16;3.03;;;2.03;;
61840;SDS011;47773;53.174;6.614;2023-05-03T03:59:42;3.70;;;1.77;;
61840;SDS011;47773;53.174;6.614;2023-05-03T04:02:08;7.45;;;1.88;;
61840;SDS011;47773;53.174;6.614;2023-05-03T04:04:34;6.38;;;1.98;;
61840;SDS011;47773;53.174;6.614;2023-05-03T04:07:00;5.38;;;2.00;;
61840;SDS011;47773;53.174;6.614;2023-05-03T04:09:26;4.85;;;1.98;;
61840;SDS011;47773;53.174;6.614;2023-05-03T04:11:52;5.63;;;1.90;;
61840;SDS011;47773;53.174;6.614;2023-05-03T04:14:18;5.10;;;1.70;;
61840;SDS011;47773;53.174;6.614;2023-05-03T04:16:43;4.72;;;1.90;;
61840;SDS011;47773;53.174;6.614;2023-05-03T04:19:09;2.80;;;1.60;;
61840;SDS011;47773;53.174;6.614;2023-05-03T04:21:35;3.92;;;1.70;;
61840;SDS011;47773;53.174;6.614;2023-05-03T04:24:01;5.85;;;1.70;;
61840;SDS011;47773;53.174;6.614;2023-05-03T04:26:30;6.00;;;1.75;;
61840;SDS011;47773;53.174;6.614;2023-05-03T04:28:57;5.32;;;1.63;;
61840;SDS011;47773;53.174;6.614;2023-05-03T04:31:23;3.28;;;1.33;;
61840;SDS011;47773;53.174;6.614;2023-05-03T04:33:49;5.43;;;1.70;;
61840;SDS011;47773;53.174;6.614;2023-05-03T04:36:19;2.95;;;1.42;;
61840;SDS011;47773;53.174;6.614;2023-05-03T04:38:49;5.75;;;1.45;;
61840;SDS011;47773;53.174;6.614;2023-05-03T04:41:15;3.92;;;1.52;;
61840;SDS011;47773;53.174;6.614;2023-05-03T04:43:41;3.60;;;1.58;;
61840;SDS011;47773;53.174;6.614;2023-05-03T04:46:07;5.43;;;1.77;;
61840;SDS011;47773;53.174;6.614;2023-05-03T04:48:34;3.03;;;1.40;;
61840;SDS011;47773;53.174;6.614;2023-05-03T04:51:00;5.03;;;1.52;;
61840;SDS011;47773;53.174;6.614;2023-05-03T04:53:26;5.78;;;1.50;;
61840;SDS011;47773;53.174;6.614;2023-05-03T04:55:51;6.63;;;1.70;;
61840;SDS011;47773;53.174;6.614;2023-05-03T04:58:17;5.85;;;1.85;;
61840;SDS011;47773;53.174;6.614;2023-05-03T05:00:43;2.83;;;1.45;;
61840;SDS011;47773;53.174;6.614;2023-05-03T05:03:09;4.68;;;1.25;;
61840;SDS011;47773;53.174;6.614;2023-05-03T05:05:35;3.20;;;1.20;;
61840;SDS011;47773;53.174;6.614;2023-05-03T05:08:01;4.85;;;1.58;;
61840;SDS011;47773;53.174;6.614;2023-05-03T05:10:27;4.47;;;1.48;;
61840;SDS011;47773;53.174;6.614;2023-05-03T05:12:52;6.82;;;1.48;;
61840;SDS011;47773;53.174;6.614;2023-05-03T05:15:18;2.03;;;1.17;;
61840;SDS011;47773;53.174;6.614;2023-05-03T05:17:44;3.10;;;1.40;;
61840;SDS011;47773;53.174;6.614;2023-05-03T05:20:09;2.75;;;1.40;;
61840;SDS011;47773;53.174;6.614;2023-05-03T05:22:40;3.08;;;1.25;;
61840;SDS011;47773;53.174;6.614;2023-05-03T05:25:06;2.03;;;1.10;;
61840;SDS011;47773;53.174;6.614;2023-05-03T05:27:35;5.88;;;1.23;;
61840;SDS011;47773;53.174;6.614;2023-05-03T05:30:01;6.47;;;1.50;;
61840;SDS011;47773;53.174;6.614;2023-05-03T05:32:28;3.20;;;1.00;;
61840;SDS011;47773;53.174;6.614;2023-05-03T05:34:54;6.88;;;1.00;;
61840;SDS011;47773;53.174;6.614;2023-05-03T05:37:20;8.80;;;1.13;;
61840;SDS011;47773;53.174;6.614;2023-05-03T05:39:47;3.22;;;1.00;;
61840;SDS011;47773;53.174;6.614;2023-05-03T05:42:13;2.95;;;1.10;;
61840;SDS011;47773;53.174;6.614;2023-05-03T05:44:39;5.50;;;1.48;;
61840;SDS011;47773;53.174;6.614;2023-05-03T05:47:04;6.88;;;0.90;;
61840;SDS011;47773;53.174;6.614;2023-05-03T05:49:30;5.05;;;1.13;;
61840;SDS011;47773;53.174;6.614;2023-05-03T05:51:56;5.60;;;1.10;;
61840;SDS011;47773;53.174;6.614;2023-05-03T05:54:22;5.85;;;1.13;;
61840;SDS011;47773;53.174;6.614;2023-05-03T05:56:48;6.15;;;1.40;;
61840;SDS011;47773;53.174;6.614;2023-05-03T05:59:14;3.33;;;1.00;;
61840;SDS011;47773;53.174;6.614;2023-05-03T06:01:40;1.88;;;0.80;;
61840;SDS011;47773;53.174;6.614;2023-05-03T06:04:10;5.00;;;1.02;;
61840;SDS011;47773;53.174;6.614;2023-05-03T06:06:36;4.03;;;0.90;;
61840;SDS011;47773;53.174;6.614;2023-05-03T06:09:01;3.42;;;1.40;;
61840;SDS011;47773;53.174;6.614;2023-05-03T06:11:27;3.17;;;0.98;;
61840;SDS011;47773;53.174;6.614;2023-05-03T06:13:53;2.38;;;1.05;;
61840;SDS011;47773;53.174;6.614;2023-05-03T06:16:21;3.42;;;0.90;;
61840;SDS011;47773;53.174;6.614;2023-05-03T06:18:47;2.63;;;0.70;;
61840;SDS011;47773;53.174;6.614;2023-05-03T06:21:13;3.00;;;0.70;;
61840;SDS011;47773;53.174;6.614;2023-05-03T06:23:38;5.00;;;0.90;;
61840;SDS011;47773;53.174;6.614;2023-05-03T06:26:04;3.00;;;0.73;;
61840;SDS011;47773;53.174;6.614;2023-05-03T06:28:30;5.38;;;0.98;;
61840;SDS011;47773;53.174;6.614;2023-05-03T06:30:56;5.10;;;0.95;;
61840;SDS011;47773;53.174;6.614;2023-05-03T06:33:21;3.78;;;0.90;;
61840;SDS011;47773;53.174;6.614;2023-05-03T06:35:47;3.78;;;1.00;;
61840;SDS011;47773;53.174;6.614;2023-05-03T06:38:13;2.95;;;0.80;;
61840;SDS011;47773;53.174;6.614;2023-05-03T06:40:38;3.65;;;0.90;;
61840;SDS011;47773;53.174;6.614;2023-05-03T06:43:07;2.38;;;1.00;;
61840;SDS011;47773;53.174;6.614;2023-05-03T06:45:32;4.05;;;0.85;;
61840;SDS011;47773;53.174;6.614;2023-05-03T06:47:58;3.83;;;0.70;;
61840;SDS011;47773;53.174;6.614;2023-05-03T06:50:24;4.90;;;0.80;;
61840;SDS011;47773;53.174;6.614;2023-05-03T06:52:50;5.47;;;0.77;;
61840;SDS011;47773;53.174;6.614;2023-05-03T06:55:16;4.45;;;1.10;;
61840;SDS011;47773;53.174;6.614;2023-05-03T06:57:42;5.03;;;0.82;;
61840;SDS011;47773;53.174;6.614;2023-05-03T07:00:08;3.08;;;0.80;;
61840;SDS011;47773;53.174;6.614;2023-05-03T07:02:35;4.13;;;0.70;;
61840;SDS011;47773;53.174;6.614;2023-05-03T07:05:01;3.58;;;0.85;;
61840;SDS011;47773;53.174;6.614;2023-05-03T07:07:27;3.20;;;0.60;;
61840;SDS011;47773;53.174;6.614;2023-05-03T07:09:52;2.88;;;0.90;;
61840;SDS011;47773;53.174;6.614;2023-05-03T07:12:18;5.22;;;0.98;;
61840;SDS011;47773;53.174;6.614;2023-05-03T07:14:44;2.83;;;0.70;;
61840;SDS011;47773;53.174;6.614;2023-05-03T07:17:10;3.95;;;1.15;;
61840;SDS011;47773;53.174;6.614;2023-05-03T07:19:35;3.55;;;0.82;;
61840;SDS011;47773;53.174;6.614;2023-05-03T07:22:02;2.25;;;0.80;;
61840;SDS011;47773;53.174;6.614;2023-05-03T07:24:28;2.45;;;0.93;;
61840;SDS011;47773;53.174;6.614;2023-05-03T07:26:54;3.50;;;0.68;;
61840;SDS011;47773;53.174;6.614;2023-05-03T07:29:20;1.98;;;0.80;;
61840;SDS011;47773;53.174;6.614;2023-05-03T07:31:45;4.70;;;0.80;;
61840;SDS011;47773;53.174;6.614;2023-05-03T07:34:11;4.97;;;0.93;;
61840;SDS011;47773;53.174;6.614;2023-05-03T07:36:37;2.33;;;0.63;;
61840;SDS011;47773;53.174;6.614;2023-05-03T07:39:03;2.70;;;0.93;;
61840;SDS011;47773;53.174;6.614;2023-05-03T07:41:29;2.17;;;0.60;;
61840;SDS011;47773;53.174;6.614;2023-05-03T07:43:55;1.92;;;0.70;;
61840;SDS011;47773;53.174;6.614;2023-05-03T07:46:21;3.00;;;0.80;;
61840;SDS011;47773;53.174;6.614;2023-05-03T07:48:47;2.63;;;0.88;;
61840;SDS011;47773;53.174;6.614;2023-05-03T07:51:13;2.92;;;0.68;;
61840;SDS011;47773;53.174;6.614;2023-05-03T07:53:39;4.07;;;1.00;;
61840;SDS011;47773;53.174;6.614;2023-05-03T07:56:05;6.57;;;1.13;;
61840;SDS011;47773;53.174;6.614;2023-05-03T07:58:31;1.73;;;0.80;;
61840;SDS011;47773;53.174;6.614;2023-05-03T08:00:57;1.58;;;0.70;;
61840;SDS011;47773;53.174;6.614;2023-05-03T08:03:23;3.13;;;0.90;;
61840;SDS011;47773;53.174;6.614;2023-05-03T08:05:48;3.28;;;0.70;;
61840;SDS011;47773;53.174;6.614;2023-05-03T08:08:15;4.25;;;1.13;;
61840;SDS011;47773;53.174;6.614;2023-05-03T08:10:40;3.75;;;0.85;;
61840;SDS011;47773;53.174;6.614;2023-05-03T08:13:06;3.42;;;0.90;;
61840;SDS011;47773;53.174;6.614;2023-05-03T08:15:32;3.05;;;0.70;;
61840;SDS011;47773;53.174;6.614;2023-05-03T08:17:58;6.00;;;0.82;;
61840;SDS011;47773;53.174;6.614;2023-05-03T08:20:24;5.25;;;0.82;;
61840;SDS011;47773;53.174;6.614;2023-05-03T08:22:51;3.65;;;0.80;;
61840;SDS011;47773;53.174;6.614;2023-05-03T08:25:21;4.15;;;0.65;;
61840;SDS011;47773;53.174;6.614;2023-05-03T08:27:47;5.38;;;0.95;;
61840;SDS011;47773;53.174;6.614;2023-05-03T08:30:13;3.35;;;0.80;;
61840;SDS011;47773;53.174;6.614;2023-05-03T08:32:39;3.55;;;0.77;;
61840;SDS011;47773;53.174;6.614;2023-05-03T08:35:05;6.30;;;1.05;;
61840;SDS011;47773;53.174;6.614;2023-05-03T08:37:40;4.72;;;0.90;;
61840;SDS011;47773;53.174;6.614;2023-05-03T08:40:06;2.63;;;0.90;;
61840;SDS011;47773;53.174;6.614;2023-05-03T08:42:37;2.85;;;1.08;;
61840;SDS011;47773;53.174;6.614;2023-05-03T08:45:04;5.13;;;0.98;;
61840;SDS011;47773;53.174;6.614;2023-05-03T08:47:32;7.22;;;1.10;;
61840;SDS011;47773;53.174;6.614;2023-05-03T08:50:02;3.17;;;1.08;;
61840;SDS011;47773;53.174;6.614;2023-05-03T08:52:29;3.05;;;1.55;;
61840;SDS011;47773;53.174;6.614;2023-05-03T08:54:55;5.18;;;1.17;;
61840;SDS011;47773;53.174;6.614;2023-05-03T08:57:21;4.00;;;0.80;;
61840;SDS011;47773;53.174;6.614;2023-05-03T08:59:48;7.57;;;1.10;;
61840;SDS011;47773;53.174;6.614;2023-05-03T09:02:21;2.00;;;1.00;;
61840;SDS011;47773;53.174;6.614;2023-05-03T09:04:46;3.08;;;1.08;;
61840;SDS011;47773;53.174;6.614;2023-05-03T09:07:12;3.30;;;1.33;;
61840;SDS011;47773;53.174;6.614;2023-05-03T09:09:40;5.00;;;1.10;;
61840;SDS011;47773;53.174;6.614;2023-05-03T09:12:05;9.15;;;1.40;;
61840;SDS011;47773;53.174;6.614;2023-05-03T09:14:40;4.68;;;1.10;;
61840;SDS011;47773;53.174;6.614;2023-05-03T09:17:13;6.40;;;1.00;;
61840;SDS011;47773;53.174;6.614;2023-05-03T09:19:53;3.83;;;1.50;;
61840;SDS011;47773;53.174;6.614;2023-05-03T09:22:21;3.92;;;1.40;;
61840;SDS011;47773;53.174;6.614;2023-05-03T09:27:18;4.13;;;1.35;;
61840;SDS011;47773;53.174;6.614;2023-05-03T09:29:45;2.88;;;1.20;;
61840;SDS011;47773;53.174;6.614;2023-05-03T09:32:12;4.57;;;1.20;;
61840;SDS011;47773;53.174;6.614;2023-05-03T09:34:38;5.60;;;1.25;;
61840;SDS011;47773;53.174;6.614;2023-05-03T09:37:04;3.42;;;1.27;;
61840;SDS011;47773;53.174;6.614;2023-05-03T09:39:30;3.20;;;1.00;;
61840;SDS011;47773;53.174;6.614;2023-05-03T09:41:56;3.92;;;1.25;;
61840;SDS011;47773;53.174;6.614;2023-05-03T09:47:08;7.35;;;1.23;;
61840;SDS011;47773;53.174;6.614;2023-05-03T09:49:34;2.25;;;1.23;;
61840;SDS011;47773;53.174;6.614;2023-05-03T09:52:03;3.47;;;1.10;;
61840;SDS011;47773;53.174;6.614;2023-05-03T09:54:31;3.15;;;1.13;;
61840;SDS011;47773;53.174;6.614;2023-05-03T09:56:56;4.15;;;1.20;;
61840;SDS011;47773;53.174;6.614;2023-05-03T09:59:23;4.00;;;1.30;;
61840;SDS011;47773;53.174;6.614;2023-05-03T10:01:49;5.80;;;1.20;;
61840;SDS011;47773;53.174;6.614;2023-05-03T10:04:19;4.72;;;1.38;;
61840;SDS011;47773;53.174;6.614;2023-05-03T10:06:48;1.92;;;1.00;;
61840;SDS011;47773;53.174;6.614;2023-05-03T10:11:59;5.45;;;1.20;;
61840;SDS011;47773;53.174;6.614;2023-05-03T10:14:28;2.88;;;1.10;;
61840;SDS011;47773;53.174;6.614;2023-05-03T10:17:15;3.30;;;0.98;;
61840;SDS011;47773;53.174;6.614;2023-05-03T10:19:51;7.75;;;1.25;;
61840;SDS011;47773;53.174;6.614;2023-05-03T10:22:18;4.60;;;1.70;;
61840;SDS011;47773;53.174;6.614;2023-05-03T10:28:10;2.17;;;1.02;;
61840;SDS011;47773;53.174;6.614;2023-05-03T10:30:32;5.75;;;1.08;;
61840;SDS011;47773;53.174;6.614;2023-05-03T10:32:59;3.92;;;1.10;;
61840;SDS011;47773;53.174;6.614;2023-05-03T10:35:51;4.32;;;1.27;;
61840;SDS011;47773;53.174;6.614;2023-05-03T10:38:27;3.83;;;1.10;;
61840;SDS011;47773;53.174;6.614;2023-05-03T10:40:54;2.50;;;1.08;;
61840;SDS011;47773;53.174;6.614;2023-05-03T10:48:25;4.40;;;1.20;;
61840;SDS011;47773;53.174;6.614;2023-05-03T10:50:52;8.70;;;1.50;;
61840;SDS011;47773;53.174;6.614;2023-05-03T10:56:06;5.72;;;1.40;;
61840;SDS011;47773;53.174;6.614;2023-05-03T10:58:45;7.43;;;2.17;;
61840;SDS011;47773;53.174;6.614;2023-05-03T11:01:17;4.10;;;1.52;;
61840;SDS011;47773;53.174;6.614;2023-05-03T11:06:40;2.75;;;1.45;;
61840;SDS011;47773;53.174;6.614;2023-05-03T11:09:07;4.13;;;1.70;;
61840;SDS011;47773;53.174;6.614;2023-05-03T11:11:34;6.63;;;1.70;;
61840;SDS011;47773;53.174;6.614;2023-05-03T11:14:01;4.90;;;1.50;;
61840;SDS011;47773;53.174;6.614;2023-05-03T11:16:28;4.93;;;1.40;;
61840;SDS011;47773;53.174;6.614;2023-05-03T11:18:54;4.65;;;1.40;;
61840;SDS011;47773;53.174;6.614;2023-05-03T11:21:20;2.78;;;1.30;;
61840;SDS011;47773;53.174;6.614;2023-05-03T11:23:47;7.82;;;1.45;;
61840;SDS011;47773;53.174;6.614;2023-05-03T11:26:13;4.43;;;1.13;;
61840;SDS011;47773;53.174;6.614;2023-05-03T11:28:42;5.43;;;1.60;;
61840;SDS011;47773;53.174;6.614;2023-05-03T11:31:09;5.95;;;1.73;;
61840;SDS011;47773;53.174;6.614;2023-05-03T11:33:36;3.75;;;1.40;;
61840;SDS011;47773;53.174;6.614;2023-05-03T11:36:03;5.15;;;1.55;;
61840;SDS011;47773;53.174;6.614;2023-05-03T11:38:33;4.82;;;1.10;;
61840;SDS011;47773;53.174;6.614;2023-05-03T11:41:01;3.20;;;1.17;;
61840;SDS011;47773;53.174;6.614;2023-05-03T11:43:45;8.32;;;1.55;;
61840;SDS011;47773;53.174;6.614;2023-05-03T11:46:13;7.40;;;1.50;;
61840;SDS011;47773;53.174;6.614;2023-05-03T11:48:42;6.57;;;1.58;;
61840;SDS011;47773;53.174;6.614;2023-05-03T11:51:08;4.30;;;1.35;;
61840;SDS011;47773;53.174;6.614;2023-05-03T11:53:38;5.10;;;1.27;;
61840;SDS011;47773;53.174;6.614;2023-05-03T11:56:09;5.10;;;1.55;;
61840;SDS011;47773;53.174;6.614;2023-05-03T11:58:59;5.07;;;1.40;;
61840;SDS011;47773;53.174;6.614;2023-05-03T12:01:25;5.47;;;1.45;;
61840;SDS011;47773;53.174;6.614;2023-05-03T12:04:01;7.63;;;1.73;;
61840;SDS011;47773;53.174;6.614;2023-05-03T12:06:29;4.63;;;1.60;;
61840;SDS011;47773;53.174;6.614;2023-05-03T12:08:57;3.75;;;1.60;;
61840;SDS011;47773;53.174;6.614;2023-05-03T12:11:23;6.88;;;1.50;;
61840;SDS011;47773;53.174;6.614;2023-05-03T12:13:59;4.50;;;1.60;;
61840;SDS011;47773;53.174;6.614;2023-05-03T12:16:26;4.03;;;1.52;;
61840;SDS011;47773;53.174;6.614;2023-05-03T12:18:53;2.97;;;1.40;;
61840;SDS011;47773;53.174;6.614;2023-05-03T12:21:42;4.10;;;1.70;;
61840;SDS011;47773;53.174;6.614;2023-05-03T12:24:09;8.60;;;1.63;;
61840;SDS011;47773;53.174;6.614;2023-05-03T12:26:35;5.50;;;1.80;;
61840;SDS011;47773;53.174;6.614;2023-05-03T12:29:00;6.28;;;1.42;;
61840;SDS011;47773;53.174;6.614;2023-05-03T12:31:26;6.38;;;1.85;;
61840;SDS011;47773;53.174;6.614;2023-05-03T12:33:53;3.05;;;1.63;;
61840;SDS011;47773;53.174;6.614;2023-05-03T12:36:19;6.70;;;1.90;;
61840;SDS011;47773;53.174;6.614;2023-05-03T12:38:46;9.65;;;1.73;;
61840;SDS011;47773;53.174;6.614;2023-05-03T12:41:12;6.18;;;1.90;;
61840;SDS011;47773;53.174;6.614;2023-05-03T12:43:39;6.85;;;1.90;;
61840;SDS011;47773;53.174;6.614;2023-05-03T12:46:05;7.35;;;1.77;;
61840;SDS011;47773;53.174;6.614;2023-05-03T12:48:30;4.22;;;1.60;;
61840;SDS011;47773;53.174;6.614;2023-05-03T12:50:56;6.88;;;2.10;;
61840;SDS011;47773;53.174;6.614;2023-05-03T12:53:23;4.85;;;1.67;;
61840;SDS011;47773;53.174;6.614;2023-05-03T12:55:49;3.85;;;1.67;;
61840;SDS011;47773;53.174;6.614;2023-05-03T12:58:15;4.35;;;1.70;;
61840;SDS011;47773;53.174;6.614;2023-05-03T13:00:41;4.50;;;1.60;;
61840;SDS011;47773;53.174;6.614;2023-05-03T13:03:09;4.15;;;1.80;;
61840;SDS011;47773;53.174;6.614;2023-05-03T13:05:34;8.88;;;2.08;;
61840;SDS011;47773;53.174;6.614;2023-05-03T13:08:00;6.55;;;1.85;;
61840;SDS011;47773;53.174;6.614;2023-05-03T13:10:27;6.28;;;1.83;;
61840;SDS011;47773;53.174;6.614;2023-05-03T13:12:53;6.07;;;1.83;;
61840;SDS011;47773;53.174;6.614;2023-05-03T13:15:21;7.32;;;2.25;;
61840;SDS011;47773;53.174;6.614;2023-05-03T13:17:49;7.18;;;2.00;;
61840;SDS011;47773;53.174;6.614;2023-05-03T13:20:15;8.40;;;1.88;;
61840;SDS011;47773;53.174;6.614;2023-05-03T13:22:41;6.60;;;1.67;;
61840;SDS011;47773;53.174;6.614;2023-05-03T13:25:06;4.50;;;2.20;;
61840;SDS011;47773;53.174;6.614;2023-05-03T13:27:32;7.03;;;2.10;;
61840;SDS011;47773;53.174;6.614;2023-05-03T13:29:59;5.50;;;2.15;;
61840;SDS011;47773;53.174;6.614;2023-05-03T13:32:26;5.03;;;2.20;;
61840;SDS011;47773;53.174;6.614;2023-05-03T13:34:52;5.68;;;2.08;;
61840;SDS011;47773;53.174;6.614;2023-05-03T13:37:18;5.82;;;2.40;;
61840;SDS011;47773;53.174;6.614;2023-05-03T13:39:44;4.97;;;2.35;;
61840;SDS011;47773;53.174;6.614;2023-05-03T13:42:10;6.10;;;2.22;;
61840;SDS011;47773;53.174;6.614;2023-05-03T13:44:36;8.63;;;2.25;;
61840;SDS011;47773;53.174;6.614;2023-05-03T13:47:02;5.45;;;1.88;;
61840;SDS011;47773;53.174;6.614;2023-05-03T13:49:27;6.07;;;1.40;;
61840;SDS011;47773;53.174;6.614;2023-05-03T13:51:53;5.30;;;1.80;;
61840;SDS011;47773;53.174;6.614;2023-05-03T13:54:19;5.30;;;1.95;;
61840;SDS011;47773;53.174;6.614;2023-05-03T13:56:45;5.55;;;1.90;;
61840;SDS011;47773;53.174;6.614;2023-05-03T13:59:12;7.78;;;2.28;;
61840;SDS011;47773;53.174;6.614;2023-05-03T14:01:38;4.80;;;1.80;;
61840;SDS011;47773;53.174;6.614;2023-05-03T14:04:04;9.18;;;2.30;;
61840;SDS011;47773;53.174;6.614;2023-05-03T14:06:30;9.30;;;2.40;;
61840;SDS011;47773;53.174;6.614;2023-05-03T14:08:56;7.07;;;2.03;;
61840;SDS011;47773;53.174;6.614;2023-05-03T14:11:22;5.78;;;1.80;;
61840;SDS011;47773;53.174;6.614;2023-05-03T14:13:52;7.25;;;2.20;;
61840;SDS011;47773;53.174;6.614;2023-05-03T14:16:22;7.63;;;2.50;;
61840;SDS011;47773;53.174;6.614;2023-05-03T14:18:49;7.35;;;2.58;;
61840;SDS011;47773;53.174;6.614;2023-05-03T14:21:16;8.35;;;2.17;;
61840;SDS011;47773;53.174;6.614;2023-05-03T14:23:47;9.38;;;2.33;;
61840;SDS011;47773;53.174;6.614;2023-05-03T14:26:16;6.90;;;2.10;;
61840;SDS011;47773;53.174;6.614;2023-05-03T14:28:43;8.32;;;2.38;;
61840;SDS011;47773;53.174;6.614;2023-05-03T14:31:10;5.65;;;2.30;;
61840;SDS011;47773;53.174;6.614;2023-05-03T14:33:37;9.18;;;2.10;;
61840;SDS011;47773;53.174;6.614;2023-05-03T14:36:05;5.00;;;2.42;;
61840;SDS011;47773;53.174;6.614;2023-05-03T14:38:32;5.22;;;2.33;;
61840;SDS011;47773;53.174;6.614;2023-05-03T14:40:57;6.78;;;2.45;;
61840;SDS011;47773;53.174;6.614;2023-05-03T14:43:23;5.15;;;2.40;;
61840;SDS011;47773;53.174;6.614;2023-05-03T14:45:49;5.38;;;3.03;;
61840;SDS011;47773;53.174;6.614;2023-05-03T14:48:14;5.68;;;2.38;;
61840;SDS011;47773;53.174;6.614;2023-05-03T14:50:41;5.75;;;2.92;;
61840;SDS011;47773;53.174;6.614;2023-05-03T14:53:11;7.00;;;2.88;;
61840;SDS011;47773;53.174;6.614;2023-05-03T14:55:40;5.68;;;2.90;;
61840;SDS011;47773;53.174;6.614;2023-05-03T14:58:06;6.57;;;2.47;;
61840;SDS011;47773;53.174;6.614;2023-05-03T15:00:36;7.15;;;2.38;;
61840;SDS011;47773;53.174;6.614;2023-05-03T15:03:03;6.65;;;2.65;;
61840;SDS011;47773;53.174;6.614;2023-05-03T15:05:29;4.72;;;2.60;;
61840;SDS011;47773;53.174;6.614;2023-05-03T15:07:55;9.82;;;3.63;;
61840;SDS011;47773;53.174;6.614;2023-05-03T15:10:21;9.38;;;2.95;;
61840;SDS011;47773;53.174;6.614;2023-05-03T15:12:47;4.70;;;3.00;;
61840;SDS011;47773;53.174;6.614;2023-05-03T15:15:12;4.32;;;2.78;;
61840;SDS011;47773;53.174;6.614;2023-05-03T15:17:39;10.73;;;2.72;;
61840;SDS011;47773;53.174;6.614;2023-05-03T15:20:05;8.45;;;3.10;;
61840;SDS011;47773;53.174;6.614;2023-05-03T15:22:31;8.90;;;2.67;;